createdAt,value
2019-03-16T00:01:22.430Z,85.37
2019-03-16T00:03:51.874Z,85.77
2019-03-16T00:06:21.264Z,86.07
2019-03-16T00:11:45.528Z,86.32
2019-03-16T00:14:14.952Z,86.41
2019-03-16T00:16:44.330Z,86.51
2019-03-16T00:19:13.819Z,86.62
2019-03-16T00:21:46.790Z,87.01
2019-03-16T00:24:16.169Z,87.12
2019-03-16T00:26:45.812Z,87.23
2019-03-16T00:29:15.252Z,87.12
2019-03-16T00:31:44.758Z,87.09
2019-03-16T00:37:00.110Z,87.37
2019-03-16T00:39:29.569Z,87.23
2019-03-16T00:42:00.121Z,87.22
2019-03-16T00:44:29.484Z,87.40
2019-03-16T00:47:01.311Z,87.50
2019-03-16T00:49:51.130Z,87.34
2019-03-16T00:55:01.337Z,87.40
2019-03-16T00:57:30.783Z,87.70
2019-03-16T01:00:00.421Z,87.69
2019-03-16T01:02:32.683Z,87.73
2019-03-16T01:05:01.297Z,87.66
2019-03-16T01:07:41.913Z,87.86
2019-03-16T01:10:11.851Z,87.88
2019-03-16T01:12:41.231Z,87.92
2019-03-16T01:15:11.331Z,87.90
2019-03-16T01:17:40.769Z,87.95
2019-03-16T01:20:10.312Z,87.96
2019-03-16T01:25:14.755Z,87.34
2019-03-16T01:30:43.997Z,86.90
2019-03-16T01:33:13.932Z,86.42
2019-03-16T01:35:43.345Z,86.18
2019-03-16T01:41:12.298Z,85.73
2019-03-16T01:43:41.904Z,85.64
2019-03-16T01:46:11.290Z,85.53
2019-03-16T01:48:40.852Z,85.25
2019-03-16T01:51:10.517Z,85.17
2019-03-16T01:53:39.983Z,85.12
2019-03-16T01:56:28.507Z,85.09
2019-03-16T01:59:17.027Z,84.88
2019-03-16T02:01:57.833Z,84.72
2019-03-16T02:04:31.448Z,84.79
2019-03-16T02:07:02.965Z,85.01
2019-03-16T02:09:37.583Z,84.60
2019-03-16T02:12:07.039Z,84.54
2019-03-16T02:14:36.424Z,84.04
2019-03-16T02:17:05.818Z,83.26
2019-03-16T02:19:36.108Z,83.14
2019-03-16T02:22:18.179Z,83.14
2019-03-16T02:24:47.687Z,82.58
2019-03-16T02:27:17.082Z,81.71
2019-03-16T02:29:46.537Z,81.75
2019-03-16T02:32:15.976Z,82.33
2019-03-16T02:34:45.373Z,82.92
2019-03-16T02:37:14.736Z,82.88
2019-03-16T02:42:19.024Z,81.98
2019-03-16T02:47:29.527Z,82.16
2019-03-16T02:50:10.179Z,81.97
2019-03-16T02:52:39.617Z,81.50
2019-03-16T02:55:32.276Z,81.47
2019-03-16T03:00:39.321Z,80.67
2019-03-16T03:03:08.828Z,80.96
2019-03-16T03:05:38.195Z,80.63
2019-03-16T03:08:07.688Z,80.74
2019-03-16T03:10:37.222Z,80.73
2019-03-16T03:13:06.621Z,80.71
2019-03-16T03:15:35.992Z,81.01
2019-03-16T03:18:05.410Z,81.14
2019-03-16T03:20:34.789Z,80.94
2019-03-16T03:28:29.105Z,81.03
2019-03-16T03:33:57.397Z,81.46
2019-03-16T03:36:04.683Z,81.55
2019-03-16T03:38:45.468Z,81.03
2019-03-16T03:41:14.995Z,81.03
2019-03-16T03:47:06.769Z,81.03
2019-03-16T03:49:24.465Z,81.11
2019-03-16T03:52:05.704Z,80.94
2019-03-16T03:57:48.955Z,79.74
2019-03-16T04:00:18.453Z,78.46
2019-03-16T04:03:27.151Z,78.83
2019-03-16T04:05:56.830Z,79.37
2019-03-16T04:08:28.235Z,79.44
2019-03-16T04:10:57.727Z,79.70
2019-03-16T04:13:27.308Z,79.77
2019-03-16T04:16:15.763Z,79.35
2019-03-16T04:18:45.143Z,79.10
2019-03-16T04:21:14.552Z,77.85
2019-03-16T04:23:43.979Z,77.05
2019-03-16T04:26:13.383Z,76.99
2019-03-16T04:29:01.820Z,76.61
2019-03-16T04:31:50.370Z,76.61
2019-03-16T04:34:29.343Z,77.34
2019-03-16T04:36:51.003Z,77.65
2019-03-16T04:39:20.406Z,77.81
2019-03-16T04:41:49.829Z,78.29
2019-03-16T04:44:20.241Z,78.46
2019-03-16T04:46:49.721Z,78.92
2019-03-16T04:49:19.142Z,79.07
2019-03-16T04:52:07.768Z,79.06
2019-03-16T04:54:37.170Z,79.16
2019-03-16T04:57:06.546Z,79.25
2019-03-16T04:59:35.992Z,78.86
2019-03-16T05:02:05.463Z,78.60
2019-03-16T05:04:42.320Z,78.25
2019-03-16T05:09:47.136Z,77.37
2019-03-16T05:12:16.584Z,77.66
2019-03-16T05:14:46.148Z,77.85
2019-03-16T05:19:50.282Z,78.66
2019-03-16T05:27:32.017Z,79.52
2019-03-16T05:30:01.424Z,79.27
2019-03-16T05:32:30.881Z,79.03
2019-03-16T05:35:00.382Z,79.46
2019-03-16T05:37:29.812Z,79.48
2019-03-16T05:42:49.331Z,79.52
2019-03-16T05:45:37.576Z,79.30
2019-03-16T05:48:07.070Z,79.05
2019-03-16T05:50:36.460Z,79.13
2019-03-16T05:53:17.501Z,79.36
2019-03-16T05:55:46.917Z,79.51
2019-03-16T05:58:16.337Z,79.86
2019-03-16T06:00:46.053Z,79.62
2019-03-16T06:03:34.548Z,79.95
2019-03-16T06:06:22.952Z,80.22
2019-03-16T06:08:52.793Z,80.22
2019-03-16T06:11:22.184Z,79.78
2019-03-16T06:13:51.902Z,79.95
2019-03-16T06:16:40.353Z,80.48
2019-03-16T06:19:09.777Z,80.82
2019-03-16T06:21:39.211Z,81.11
2019-03-16T06:24:08.670Z,81.51
2019-03-16T06:26:38.069Z,81.89
2019-03-16T06:29:07.462Z,82.02
2019-03-16T06:31:36.869Z,82.14
2019-03-16T06:34:06.252Z,82.39
2019-03-16T06:36:35.651Z,82.73
2019-03-16T06:39:44.387Z,82.89
2019-03-16T06:42:13.796Z,82.94
2019-03-16T06:44:43.387Z,83.45
2019-03-16T06:47:13.055Z,83.31
2019-03-16T06:49:42.469Z,83.17
2019-03-16T06:52:11.874Z,83.31
2019-03-16T06:54:41.512Z,83.08
2019-03-16T06:57:10.869Z,83.29
2019-03-16T06:59:40.272Z,83.07
2019-03-16T07:04:57.918Z,83.34
2019-03-16T07:07:27.375Z,83.35
2019-03-16T07:09:56.841Z,83.14
2019-03-16T07:12:26.302Z,83.41
2019-03-16T07:14:55.748Z,83.22
2019-03-16T07:17:43.995Z,82.91
2019-03-16T07:20:19.136Z,82.79
2019-03-16T07:22:48.519Z,82.44
2019-03-16T07:25:17.989Z,82.44
2019-03-16T07:27:47.406Z,82.44
2019-03-16T07:30:16.801Z,82.33
2019-03-16T07:33:05.314Z,82.02
2019-03-16T07:38:16.483Z,81.40
2019-03-16T07:40:46.223Z,81.20
2019-03-16T07:43:15.747Z,81.26
2019-03-16T07:46:04.437Z,80.99
2019-03-16T07:48:45.124Z,81.79
2019-03-16T07:51:14.756Z,81.79
2019-03-16T07:53:44.192Z,81.80
2019-03-16T07:56:13.817Z,81.56
2019-03-16T08:01:19.590Z,81.56
2019-03-16T08:06:43.191Z,81.79
2019-03-16T08:09:16.343Z,81.78
2019-03-16T08:12:04.761Z,81.62
2019-03-16T08:14:45.606Z,81.62
2019-03-16T08:17:17.467Z,81.29
2019-03-16T08:19:46.928Z,80.62
2019-03-16T08:22:16.398Z,80.55
2019-03-16T08:24:45.959Z,79.92
2019-03-16T08:27:15.437Z,80.03
2019-03-16T08:29:47.278Z,79.86
2019-03-16T08:32:16.931Z,79.34
2019-03-16T08:35:05.682Z,79.27
2019-03-16T08:37:35.531Z,78.58
2019-03-16T08:43:19.522Z,77.73
2019-03-16T08:45:48.899Z,78.17
2019-03-16T08:48:23.073Z,78.00
2019-03-16T08:51:08.326Z,77.68
2019-03-16T08:53:49.841Z,77.53
2019-03-16T08:56:19.377Z,76.54
2019-03-16T08:58:48.795Z,76.02
2019-03-16T09:01:18.194Z,76.22
2019-03-16T09:03:47.615Z,76.30
2019-03-16T09:06:17.009Z,75.89
2019-03-16T09:08:46.417Z,76.02
2019-03-16T09:11:17.822Z,76.66
2019-03-16T09:13:47.200Z,77.39
2019-03-16T09:16:16.569Z,76.23
2019-03-16T09:18:46.399Z,75.98
2019-03-16T09:21:20.236Z,75.53
2019-03-16T09:23:49.586Z,74.75
2019-03-16T09:26:19.062Z,74.39
2019-03-16T09:29:14.937Z,74.78
2019-03-16T09:31:38.722Z,74.30
2019-03-16T09:34:27.023Z,74.17
2019-03-16T09:37:07.530Z,74.02
2019-03-16T09:39:37.046Z,73.52
2019-03-16T09:42:06.438Z,73.53
2019-03-16T09:44:35.846Z,73.16
2019-03-16T09:47:05.284Z,73.35
2019-03-16T09:49:34.618Z,74.36
2019-03-16T09:52:04.013Z,74.53
2019-03-16T09:54:33.462Z,74.26
2019-03-16T09:57:21.982Z,73.65
2019-03-16T09:59:53.630Z,73.68
2019-03-16T10:02:22.926Z,73.57
2019-03-16T10:04:52.333Z,73.86
2019-03-16T10:07:40.653Z,73.82
2019-03-16T10:10:10.297Z,72.72
2019-03-16T10:12:39.711Z,72.73
2019-03-16T10:15:09.407Z,72.71
2019-03-16T10:17:38.781Z,72.70
2019-03-16T10:20:08.625Z,72.32
2019-03-16T10:22:56.988Z,71.88
2019-03-16T10:25:26.382Z,71.73
2019-03-16T10:28:14.689Z,72.05
2019-03-16T10:30:44.350Z,72.52
2019-03-16T10:33:13.986Z,71.35
2019-03-16T10:40:59.027Z,70.88
2019-03-16T10:43:28.478Z,71.14
2019-03-16T10:48:46.487Z,71.57
2019-03-16T10:51:16.109Z,71.36
2019-03-16T10:53:45.500Z,70.95
2019-03-16T10:56:17.509Z,70.44
2019-03-16T10:58:55.946Z,69.71
2019-03-16T11:01:18.284Z,70.55
2019-03-16T11:03:47.662Z,70.80
2019-03-16T11:06:17.086Z,69.66
2019-03-16T11:08:46.486Z,70.04
2019-03-16T11:11:15.892Z,68.08
2019-03-16T11:13:45.274Z,67.48
2019-03-16T11:16:14.759Z,67.52
2019-03-16T11:18:44.139Z,66.83
2019-03-16T11:21:13.578Z,66.60
2019-03-16T11:23:42.994Z,66.14
2019-03-16T11:26:12.408Z,66.11
2019-03-16T11:28:41.925Z,66.50
2019-03-16T11:31:11.395Z,66.52
2019-03-16T11:33:43.138Z,66.35
2019-03-16T11:36:12.501Z,66.52
2019-03-16T11:38:42.132Z,65.77
2019-03-16T11:43:57.287Z,66.54
2019-03-16T11:46:26.876Z,65.72
2019-03-16T11:48:56.282Z,65.71
2019-03-16T11:51:25.922Z,65.53
2019-03-16T11:53:55.385Z,64.82
2019-03-16T11:56:24.911Z,65.10
2019-03-16T12:01:42.498Z,65.75
2019-03-16T12:06:47.219Z,66.33
2019-03-16T12:09:16.646Z,66.74
2019-03-16T12:11:46.042Z,66.19
2019-03-16T12:14:15.429Z,66.24
2019-03-16T12:16:44.827Z,66.84
2019-03-16T12:19:14.236Z,67.11
2019-03-16T12:21:43.626Z,67.86
2019-03-16T12:24:13.336Z,68.36
2019-03-16T12:26:42.927Z,69.26
2019-03-16T12:29:12.400Z,69.69
2019-03-16T12:31:44.087Z,69.94
2019-03-16T12:34:13.482Z,69.67
2019-03-16T12:36:45.106Z,69.58
2019-03-16T12:42:00.041Z,69.21
2019-03-16T12:44:29.534Z,67.87
2019-03-16T12:46:59.036Z,68.08
2019-03-16T12:49:28.428Z,67.92
2019-03-16T12:51:57.953Z,68.66
2019-03-16T12:54:27.306Z,67.97
2019-03-16T12:56:56.749Z,68.30
2019-03-16T12:59:26.748Z,68.76
2019-03-16T13:01:56.267Z,69.05
2019-03-16T13:04:46.149Z,69.34
2019-03-16T13:07:15.552Z,68.46
2019-03-16T13:09:44.935Z,68.37
2019-03-16T13:12:14.474Z,68.94
2019-03-16T13:14:43.923Z,69.35
2019-03-16T13:17:13.324Z,69.05
2019-03-16T13:19:43.505Z,69.46
2019-03-16T13:22:32.615Z,68.92
2019-03-16T13:25:02.176Z,69.13
2019-03-16T13:27:31.683Z,69.55
2019-03-16T13:30:01.251Z,69.53
2019-03-16T13:32:30.793Z,69.41
2019-03-16T13:35:00.460Z,69.69
2019-03-16T13:40:18.405Z,67.89
2019-03-16T13:42:47.799Z,68.79
2019-03-16T13:45:17.188Z,69.05
2019-03-16T13:47:46.753Z,68.06
2019-03-16T13:50:16.163Z,68.04
2019-03-16T13:53:00.051Z,68.42
2019-03-16T13:55:29.811Z,68.32
2019-03-16T13:58:13.360Z,68.36
2019-03-16T14:00:30.428Z,66.98
2019-03-16T14:05:53.839Z,65.95
2019-03-16T14:08:23.422Z,66.67
2019-03-16T14:10:53.216Z,66.77
2019-03-16T14:13:22.907Z,66.64
2019-03-16T14:15:52.298Z,67.41
2019-03-16T14:18:21.708Z,67.51
2019-03-16T14:20:54.336Z,67.78
2019-03-16T14:23:23.815Z,67.17
2019-03-16T14:25:53.354Z,67.50
2019-03-16T14:28:22.868Z,67.44
2019-03-16T14:30:52.367Z,67.09
2019-03-16T14:33:21.787Z,67.19
2019-03-16T14:35:51.220Z,66.94
2019-03-16T14:38:20.585Z,66.34
2019-03-16T14:40:49.974Z,66.72
2019-03-16T14:43:19.398Z,66.28
2019-03-16T14:45:49.215Z,66.10
2019-03-16T14:48:18.587Z,66.17
2019-03-16T14:50:48.288Z,66.25
2019-03-16T14:53:17.700Z,66.07
2019-03-16T14:55:47.106Z,66.01
2019-03-16T14:58:27.828Z,63.92
2019-03-16T15:00:57.626Z,64.05
2019-03-16T15:03:27.131Z,64.80
2019-03-16T15:05:56.931Z,65.25
2019-03-16T15:08:26.316Z,65.75
2019-03-16T15:10:55.796Z,66.05
2019-03-16T15:13:26.891Z,66.36
2019-03-16T15:15:57.719Z,66.25
2019-03-16T15:18:27.206Z,66.50
2019-03-16T15:20:56.882Z,66.84
2019-03-16T15:23:26.310Z,66.92
2019-03-16T15:25:55.782Z,66.99
2019-03-16T15:33:50.818Z,65.39
2019-03-16T15:36:20.228Z,65.83
2019-03-16T15:38:49.645Z,66.35
2019-03-16T15:41:22.049Z,66.80
2019-03-16T15:43:51.506Z,66.89
2019-03-16T15:46:20.899Z,66.55
2019-03-16T15:48:50.396Z,66.62
2019-03-16T15:51:19.818Z,66.65
2019-03-16T15:53:49.238Z,66.21
2019-03-16T15:56:18.653Z,65.62
2019-03-16T15:58:48.223Z,65.81
2019-03-16T16:01:17.615Z,65.78
2019-03-16T16:03:46.972Z,66.08
2019-03-16T16:06:16.433Z,65.97
2019-03-16T16:08:45.836Z,66.15
2019-03-16T16:11:15.197Z,66.45
2019-03-16T16:13:44.643Z,66.54
2019-03-16T16:16:14.019Z,66.62
2019-03-16T16:18:54.701Z,66.60
2019-03-16T16:24:18.506Z,66.83
2019-03-16T16:26:48.100Z,67.19
2019-03-16T16:29:17.460Z,67.15
2019-03-16T16:31:47.081Z,67.34
2019-03-16T16:34:16.460Z,67.60
2019-03-16T16:36:45.882Z,67.67
2019-03-16T16:39:15.374Z,67.79
2019-03-16T16:41:51.229Z,68.00
2019-03-16T16:44:20.680Z,68.18
2019-03-16T16:46:50.098Z,68.63
2019-03-16T16:49:19.772Z,68.83
2019-03-16T16:51:49.197Z,68.98
2019-03-16T16:54:18.622Z,68.97
2019-03-16T16:57:02.661Z,69.19
2019-03-16T16:59:32.408Z,69.44
2019-03-16T17:02:02.163Z,69.91
2019-03-16T17:04:31.534Z,70.09
2019-03-16T17:07:01.044Z,70.27
2019-03-16T17:09:30.513Z,70.67
2019-03-16T17:12:19.458Z,70.88
2019-03-16T17:14:49.374Z,70.79
2019-03-16T17:17:18.742Z,70.85
2019-03-16T17:19:48.227Z,71.08
2019-03-16T17:22:17.651Z,71.46
2019-03-16T17:24:47.441Z,71.72
2019-03-16T17:27:16.905Z,71.99
2019-03-16T17:29:46.312Z,72.13
2019-03-16T17:32:15.721Z,72.09
2019-03-16T17:34:45.118Z,72.57
2019-03-16T17:37:33.714Z,72.41
2019-03-16T17:40:03.301Z,72.30
2019-03-16T17:42:32.798Z,72.25
2019-03-16T17:45:02.351Z,72.17
2019-03-16T17:47:31.900Z,72.14
2019-03-16T17:50:01.319Z,72.27
2019-03-16T17:52:30.759Z,72.24
2019-03-16T17:55:00.650Z,72.25
2019-03-16T17:57:30.045Z,72.38
2019-03-16T17:59:59.616Z,72.74
2019-03-16T18:02:29.186Z,72.87
2019-03-16T18:04:58.585Z,72.91
2019-03-16T18:07:28.087Z,73.05
2019-03-16T18:09:57.504Z,73.12
2019-03-16T18:12:45.982Z,73.10
2019-03-16T18:15:27.133Z,73.05
2019-03-16T18:17:56.518Z,73.25
2019-03-16T18:20:25.957Z,73.33
2019-03-16T18:22:55.432Z,73.68
2019-03-16T18:25:27.850Z,74.02
2019-03-16T18:27:57.287Z,74.09
2019-03-16T18:30:26.892Z,74.46
2019-03-16T18:32:56.300Z,74.67
2019-03-16T18:35:25.785Z,75.31
2019-03-16T18:37:55.666Z,75.76
2019-03-16T18:40:25.070Z,75.94
2019-03-16T18:42:54.952Z,75.93
2019-03-16T18:45:24.436Z,75.88
2019-03-16T18:47:53.860Z,75.77
2019-03-16T18:50:23.324Z,75.60
2019-03-16T18:52:52.772Z,75.55
2019-03-16T18:55:22.173Z,75.58
2019-03-16T18:58:10.697Z,75.48
2019-03-16T19:00:40.519Z,75.32
2019-03-16T19:03:11.660Z,75.23
2019-03-16T19:05:41.129Z,75.08
2019-03-16T19:11:04.514Z,74.98
2019-03-16T19:13:35.673Z,75.45
2019-03-16T19:16:05.049Z,75.45
2019-03-16T19:18:34.559Z,76.00
2019-03-16T19:21:22.928Z,76.12
2019-03-16T19:23:52.436Z,76.13
2019-03-16T19:26:21.842Z,76.12
2019-03-16T19:28:51.249Z,75.92
2019-03-16T19:31:20.710Z,75.83
2019-03-16T19:33:52.771Z,75.83
2019-03-16T19:36:21.650Z,75.75
2019-03-16T19:39:02.929Z,75.98
2019-03-16T19:41:32.404Z,76.65
2019-03-16T19:44:01.820Z,76.65
2019-03-16T19:46:31.331Z,76.71
2019-03-16T19:49:19.881Z,77.18
2019-03-16T19:54:25.150Z,76.89
2019-03-16T19:57:15.753Z,77.26
2019-03-16T19:59:37.779Z,77.43
2019-03-16T20:02:07.165Z,77.43
2019-03-16T20:04:36.697Z,76.86
2019-03-16T20:07:18.483Z,76.71
2019-03-16T20:12:43.155Z,76.50
2019-03-16T20:15:32.941Z,76.77
2019-03-16T20:18:02.419Z,76.97
2019-03-16T20:20:31.870Z,77.48
2019-03-16T20:23:01.312Z,77.67
2019-03-16T20:25:30.795Z,77.89
2019-03-16T20:28:01.520Z,77.99
2019-03-16T20:30:49.959Z,77.88
2019-03-16T20:33:19.373Z,77.88
2019-03-16T20:35:48.779Z,77.70
2019-03-16T20:38:18.228Z,77.74
2019-03-16T20:40:50.281Z,77.76
2019-03-16T20:43:18.782Z,77.62
2019-03-16T20:45:48.272Z,77.27
2019-03-16T20:48:17.667Z,77.27
2019-03-16T20:50:47.205Z,77.49
2019-03-16T20:53:16.655Z,77.52
2019-03-16T20:55:46.049Z,77.62
2019-03-16T20:58:15.465Z,77.85
2019-03-16T21:01:04.013Z,78.51
2019-03-16T21:06:46.445Z,78.50
2019-03-16T21:09:16.225Z,78.50
2019-03-16T21:11:45.781Z,78.82
2019-03-16T21:14:15.274Z,78.82
2019-03-16T21:16:44.659Z,78.79
2019-03-16T21:22:05.326Z,78.91
2019-03-16T21:24:34.848Z,79.02
2019-03-16T21:27:04.351Z,79.42
2019-03-16T21:29:33.824Z,79.86
2019-03-16T21:32:03.682Z,80.08
2019-03-16T21:34:33.528Z,80.44
2019-03-16T21:39:38.996Z,80.75
2019-03-16T21:42:08.383Z,80.92
2019-03-16T21:44:37.755Z,80.91
2019-03-16T21:47:07.154Z,80.92
2019-03-16T21:49:36.802Z,80.83
2019-03-16T21:52:06.269Z,80.78
2019-03-16T21:54:54.781Z,80.64
2019-03-16T22:00:09.667Z,80.75
2019-03-16T22:05:32.717Z,80.86
2019-03-16T22:08:02.231Z,80.84
2019-03-16T22:10:31.849Z,80.96
2019-03-16T22:13:01.284Z,80.82
2019-03-16T22:15:49.817Z,80.79
2019-03-16T22:18:19.213Z,80.74
2019-03-16T22:20:52.105Z,80.78
2019-03-16T22:23:21.496Z,80.72
2019-03-16T22:25:50.974Z,80.62
2019-03-16T22:28:20.358Z,80.70
2019-03-16T22:30:49.783Z,80.62
2019-03-16T22:33:19.264Z,80.75
2019-03-16T22:36:07.916Z,80.63
2019-03-16T22:38:37.598Z,80.63
2019-03-16T22:41:14.738Z,80.66
2019-03-16T22:43:44.246Z,80.59
2019-03-16T22:46:13.969Z,80.50
2019-03-16T22:48:43.377Z,80.62
2019-03-16T22:51:12.955Z,80.57
2019-03-16T22:53:42.366Z,80.52
2019-03-16T22:56:11.837Z,80.59
2019-03-16T23:01:18.061Z,80.45
2019-03-16T23:06:41.125Z,80.63
2019-03-16T23:09:10.515Z,80.47
2019-03-16T23:11:39.889Z,80.44
2019-03-16T23:14:09.325Z,80.43
2019-03-16T23:16:38.683Z,80.56
2019-03-16T23:19:08.194Z,80.71
2019-03-16T23:21:37.658Z,80.71
2019-03-16T23:24:07.047Z,80.91
2019-03-16T23:26:38.819Z,81.08
2019-03-16T23:29:07.551Z,81.02
2019-03-16T23:31:36.939Z,81.29
2019-03-16T23:34:18.363Z,81.35
2019-03-16T23:36:56.476Z,81.31
2019-03-16T23:39:27.022Z,81.24
2019-03-16T23:42:15.428Z,81.08
2019-03-16T23:44:44.800Z,81.12
2019-03-16T23:47:33.497Z,81.24
2019-03-16T23:50:02.995Z,81.12
2019-03-16T23:52:33.061Z,81.11
2019-03-16T23:55:02.534Z,81.11
2019-03-16T23:57:32.018Z,81.04
